Flight Track Log - Related Links

Times and Time Zones

All times are in EST time to prevent confusion due to time zone crossing. See the N614MM flight status page for this flight to view local times or setup timezone preferences in your user account.

Time Position Orientation Groundspeed Altitude Reporting Facility
EST Latitude Longitude Course Direction KTS MPH feet Rate Location/Type
Tue 03:04:53 PM 25.9064 -80.2892 279° West 80 92 400  Level Miami Center
Tue 03:05:24 PM 25.9083 -80.3031 279° West 105 121 800 783 Climbing Miami Center
Tue 03:06:25 PM 25.9011 -80.3375 257° West 112 129 1,600 683 Climbing Miami Center
Tue 03:07:27 PM 25.8981 -80.3742 265° West 122 140 2,200 634 Climbing Miami Center
Tue 03:08:28 PM 25.9100 -80.4069 292° West 118 136 2,900 516 Climbing Miami Center
Tue 03:09:00 PM 25.9242 -80.4167 328° Northwest 110 127 3,000 393 Climbing Miami Center
Tue 03:09:29 PM 25.9344 -80.4331 305° West 120 138 3,300 600 Climbing Miami Center
Tue 03:10:00 PM 25.9486 -80.4428 328° Northwest 123 142 3,600 590 Climbing Miami Center
Tue 03:10:30 PM 25.9586 -80.4639 298° West 126 145 3,900 400 Climbing Miami Center
Tue 03:11:00 PM 25.9711 -80.4711 333° Northwest 123 142 4,000 179 Climbing Miami Center
Tue 03:11:37 PM 25.9914 -80.4950 313° West 145 167 4,100 100 Climbing Miami Center
Tue 03:12:00 PM 26.0014 -80.5044 320° Northwest 147 169 4,100  Level Miami Center
Tue 03:12:32 PM 26.0175 -80.5281 307° West 155 178 4,100  Level Miami Center
Tue 03:13:00 PM 26.0319 -80.5378 329° Northwest 152 175 4,100  Level Miami Center
Tue 03:13:34 PM 26.0481 -80.5614 307° West 155 178 4,100 -100 Level Miami Center
Tue 03:14:00 PM 26.0583 -80.5708 320° Northwest 152 175 4,000  Descending Miami Center
Tue 03:15:00 PM 26.0908 -80.6067 315° West 165 190 4,100 400 Climbing Miami Center
Tue 03:16:00 PM 26.1150 -80.6375 311° West 153 176 4,800 500 Climbing Miami Center
Tue 03:17:00 PM 26.1456 -80.6661 320° Northwest 142 163 5,100 500 Climbing Miami Center
Tue 03:18:00 PM 26.1742 -80.6972 316° Northwest 142 163 5,800 700 Climbing Miami Center
Tue 03:19:00 PM 26.2006 -80.7189 324° Northwest 142 163 6,500 650 Climbing Miami Center
Tue 03:20:00 PM 26.2250 -80.7497 311° West 136 157 7,100 600 Climbing Miami Center
Tue 03:21:00 PM 26.2492 -80.7783 313° West 124 143 7,700 500 Climbing Miami Center
Tue 03:22:00 PM 26.2717 -80.8022 316° Northwest 116 133 8,100 150 Climbing Miami Center
Tue 03:23:00 PM 26.3019 -80.8358 315° West 129 148 8,000 -50 Descending Miami Center
Tue 03:24:00 PM 26.3261 -80.8667 311° West 142 163 8,000  Level Miami Center
Tue 03:25:00 PM 26.3586 -80.9047 314° West 152 175 8,000  Level Miami Center
Tue 03:26:00 PM 26.3869 -80.9358 315° West 152 175 8,000  Level Miami Center
Tue 03:27:00 PM 26.4192 -80.9764 312° West 152 175 8,000  Level Miami Center
Tue 03:28:00 PM 26.4497 -81.0053 320° Northwest 152 175 8,000  Level Miami Center
Tue 03:29:00 PM 26.4842 -81.0436 315° West 157 181 8,000  Level Miami Center
Tue 03:30:00 PM 26.5186 -81.0775 319° Northwest 165 190 8,000  Level Miami Center
Tue 03:31:00 PM 26.5531 -81.1111 319° Northwest 160 184 8,000  Level Miami Center
Tue 03:32:00 PM 26.5836 -81.1425 317° Northwest 160 184 8,000  Level Miami Center
Tue 03:33:00 PM 26.6181 -81.1761 319° Northwest 160 184 8,000  Level Miami Center
Tue 03:34:00 PM 26.6506 -81.2075 319° Northwest 160 184 8,000  Level Miami Center
Tue 03:35:00 PM 26.6850 -81.2414 319° Northwest 160 184 8,000  Level Miami Center
Tue 03:36:00 PM 26.7172 -81.2775 315° West 155 178 8,000  Level Miami Center
Tue 03:37:00 PM 26.7497 -81.3089 319° Northwest 165 190 8,000  Level Miami Center
Tue 03:38:00 PM 26.7842 -81.3453 317° Northwest 160 184 8,000  Level Miami Center
Tue 03:39:00 PM 26.8164 -81.3789 317° Northwest 160 184 8,000  Level Miami Center
Tue 03:40:00 PM 26.8489 -81.4106 319° Northwest 160 184 8,000  Level Miami Center
Tue 03:41:00 PM 26.8789 -81.4489 311° West 155 178 8,000  Level Miami Center
Tue 03:42:00 PM 26.9094 -81.4803 318° Northwest 155 178 8,000  Level Miami Center
Tue 03:43:00 PM 26.9375 -81.5164 311° West 150 173 8,000  Level Miami Center
Tue 03:44:00 PM 26.9675 -81.5503 315° West 150 173 8,000  Level Miami Center
Tue 03:45:00 PM 26.9978 -81.5864 313° West 150 173 8,000  Level Miami Center
Tue 03:46:00 PM 27.0217 -81.6200 309° West 150 173 8,000  Level Miami Center
Tue 03:47:00 PM 27.0519 -81.6561 313° West 150 173 8,000 50 Level Miami Center
Tue 03:48:00 PM 27.0819 -81.6900 315° West 150 173 8,100 50 Climbing Miami Center
Tue 03:49:00 PM 27.1100 -81.7239 313° West 145 167 8,100  Level Miami Center
Tue 03:50:00 PM 27.1381 -81.7578 313° West 145 167 8,100  Level Miami Center
Tue 03:51:00 PM 27.1683 -81.7942 313° West 145 167 8,100  Level Miami Center
Tue 03:52:00 PM 27.1983 -81.8281 315° West 145 167 8,100 -50 Level Miami Center
Tue 03:53:00 PM 27.2286 -81.8619 315° West 145 167 8,000 -100 Descending Miami Center
Tue 03:54:00 PM 27.2564 -81.8983 311° West 145 167 7,900 -250 Descending Miami Center
Tue 03:55:00 PM 27.2886 -81.9369 313° West 145 167 7,500 -400 Descending Miami Center
Tue 03:56:00 PM 27.3183 -81.9781 309° West 156 180 7,100 -450 Descending Miami Center
Tue 03:57:00 PM 27.3483 -82.0167 311° West 162 186 6,600 -500 Descending Miami Center
Tue 03:58:00 PM 27.3803 -82.0578 311° West 162 186 6,100 -300 Descending Miami Center
Tue 03:59:00 PM 27.4144 -82.0944 316° Northwest 162 186 6,000 -50 Descending Miami Center
Tue 04:00:00 PM 27.4464 -82.1311 314° West 167 192 6,000  Level Miami Center
Tue 04:01:00 PM 27.4786 -82.1675 315° West 167 192 6,000 -50 Level Miami Center
Tue 04:02:00 PM 27.5083 -82.2042 312° West 167 192 5,900 -150 Descending Miami Center
Tue 04:03:00 PM 27.5453 -82.2269 331° Northwest 155 178 5,700 -350 Descending Miami Center
Tue 04:04:00 PM 27.5925 -82.2456 341° North 147 169 5,200 -600 Descending Miami Center
Tue 04:05:00 PM 27.6314 -82.2683 333° Northwest 152 175 4,500 -594 Descending Miami Center
Tue 04:05:41 PM 27.6667 -82.2833 339° North 157 181 4,200 -416 Descending Tampa TRACON
Tue 04:06:41 PM 27.7000 -82.3000 336° Northwest 150 173 3,800 -500 Descending Tampa TRACON
Tue 04:07:41 PM 27.7333 -82.3333 318° Northwest 156 180 3,200 -619 Descending Tampa TRACON
Tue 04:08:47 PM 27.7833 -82.3500 344° North 158 182 2,500 -550 Descending Tampa TRACON
Tue 04:09:41 PM 27.8167 -82.3667 336° Northwest 156 180 2,100 -368 Descending Tampa TRACON
Tue 04:10:41 PM 27.8667 -82.3833 344° North 149 171 1,800 -429 Descending Tampa TRACON
Tue 04:11:47 PM 27.9000 -82.4000 336° Northwest 155 178 1,200 -545 Descending Tampa TRACON

Login

Don't have an account? Register now (free) for customized features, flight alerts, and more!